Time;durP1;ratioP1;P1;durP2;ratioP2;P2;SDS_P1;SDS_P2;PMS_P1;PMS_P2;Temp;Humidity;BMP_temperature;BMP_pressure;BME280_temperature;BME280_humidity;BME280_pressure;Samples;Min_cycle;Max_cycle;Signal;HPM_P1;HPM_P2
2022/01/21 00:01:46;;;;;;;351.83;259.75;;;;;;;23.12;38.39;103589.66;5126660;27;20117;-42
2022/01/21 00:04:14;;;;;;;371.75;265.15;;;;;;;23.12;38.34;103586.13;5126265;27;20056;-42
2022/01/21 00:06:43;;;;;;;362.00;264.05;;;;;;;23.04;38.58;103588.31;5126597;27;20045;-42
2022/01/21 00:09:11;;;;;;;352.80;262.17;;;;;;;23.01;38.45;103591.66;5127000;27;20024;-42
2022/01/21 00:11:40;;;;;;;360.00;263.83;;;;;;;23.02;38.75;103593.47;5126489;27;20059;-42
2022/01/21 00:14:10;;;;;;;357.83;261.70;;;;;;;22.99;38.69;103592.38;5126317;27;20023;-41
2022/01/21 00:16:39;;;;;;;355.38;259.70;;;;;;;23.01;38.68;103593.34;5126009;27;20047;-42
2022/01/21 00:19:12;;;;;;;359.77;259.17;;;;;;;23.02;38.34;103593.47;5125655;27;20027;-42
2022/01/21 00:30:15;;;;;;;351.35;262.38;;;;;;;22.87;38.53;103585.59;5114459;27;20056;-42
2022/01/21 00:32:46;;;;;;;354.45;257.52;;;;;;;22.87;38.58;103598.69;5126258;27;20035;-42
2022/01/21 00:35:15;;;;;;;353.23;259.30;;;;;;;22.91;38.26;103595.44;5126159;27;20042;-42
2022/01/21 00:37:44;;;;;;;359.38;262.02;;;;;;;22.87;38.45;103592.56;5126069;27;20031;-41
2022/01/21 00:40:15;;;;;;;363.88;266.45;;;;;;;22.87;38.54;103590.81;5125916;27;20695;-41
2022/01/21 00:45:15;;;;;;;364.40;261.73;;;;;;;22.85;38.69;103589.81;5125917;27;20019;-41
2022/01/21 00:47:44;;;;;;;360.73;262.00;;;;;;;22.80;38.72;103590.38;5125958;27;20042;-42
2022/01/21 00:50:14;;;;;;;363.48;265.65;;;;;;;22.79;38.73;103585.94;5125946;27;20027;-42
2022/01/21 00:52:43;;;;;;;360.92;267.45;;;;;;;22.76;38.58;103582.34;5125745;27;20034;-45
2022/01/21 00:55:12;;;;;;;365.80;265.70;;;;;;;22.79;38.75;103573.78;5125346;27;20720;-41
2022/01/21 00:57:41;;;;;;;370.08;264.13;;;;;;;22.75;38.87;103574.41;5125717;27;20049;-41
2022/01/21 01:00:12;;;;;;;362.42;261.45;;;;;;;22.81;38.82;103576.47;5125752;27;20031;-42
2022/01/21 01:02:41;;;;;;;367.65;267.08;;;;;;;22.75;38.78;103583.13;5125907;27;20080;-42
2022/01/21 01:05:11;;;;;;;372.20;271.40;;;;;;;22.75;38.58;103575.28;5125727;27;20034;-42
2022/01/21 01:07:40;;;;;;;377.63;274.10;;;;;;;22.76;38.76;103579.72;5125796;27;20066;-41
2022/01/21 01:10:16;;;;;;;371.70;268.35;;;;;;;22.74;38.88;103576.13;5125680;27;20027;-42
2022/01/21 01:12:57;;;;;;;364.92;263.05;;;;;;;22.72;38.92;103575.13;5125538;27;20030;-41
2022/01/21 01:21:00;;;;;;;362.88;268.17;;;;;;;22.80;38.77;103569.44;5117115;27;20130;-42
2022/01/21 01:23:39;;;;;;;362.90;264.17;;;;;;;22.73;38.63;103579.56;5106548;27;20380;-42
2022/01/21 01:28:55;;;;;;;375.27;270.83;;;;;;;22.65;38.87;103586.03;5117856;27;20031;-43
2022/01/21 01:31:23;;;;;;;367.20;271.45;;;;;;;22.64;38.95;103575.50;5124845;27;20126;-42
2022/01/21 01:33:53;;;;;;;370.88;267.75;;;;;;;22.67;39.05;103581.78;5124772;27;20543;-42
2022/01/21 01:36:21;;;;;;;368.08;269.52;;;;;;;22.67;39.10;103575.69;5125031;27;20027;-42
2022/01/21 01:39:16;;;;;;;368.45;271.02;;;;;;;22.69;38.80;103574.03;5125048;27;20411;-41
2022/01/21 01:41:43;;;;;;;390.83;280.10;;;;;;;22.67;39.09;103573.94;5124060;27;20075;-42
2022/01/21 01:49:47;;;;;;;365.55;270.98;;;;;;;22.64;38.84;103570.25;5113770;27;20447;-41
2022/01/21 01:52:17;;;;;;;383.88;274.90;;;;;;;22.67;38.85;103579.19;5124420;27;20228;-41
2022/01/21 01:54:49;;;;;;;378.73;277.35;;;;;;;22.64;39.15;103576.38;5124422;27;20419;-43
2022/01/21 01:57:18;;;;;;;369.63;270.48;;;;;;;22.64;39.09;103586.84;5096166;27;20562;-41
2022/01/21 01:59:46;;;;;;;386.23;281.60;;;;;;;22.67;38.80;103575.69;5106511;27;20045;-42
2022/01/21 02:02:18;;;;;;;373.52;273.75;;;;;;;22.59;39.21;103578.72;5124524;27;20027;-41
2022/01/21 02:04:48;;;;;;;370.77;272.35;;;;;;;22.62;38.84;103572.75;5124278;27;20515;-42
2022/01/21 02:07:17;;;;;;;376.05;276.27;;;;;;;22.56;39.21;103583.75;5124490;27;20427;-42
2022/01/21 02:09:46;;;;;;;380.35;276.23;;;;;;;22.60;38.97;103577.00;5124454;27;20385;-42
2022/01/21 02:12:15;;;;;;;379.25;277.98;;;;;;;22.65;39.13;103579.91;5106032;27;20023;-41
2022/01/21 02:14:49;;;;;;;369.65;273.30;;;;;;;22.67;39.05;103583.53;5124433;27;20500;-43
2022/01/21 02:22:54;;;;;;;380.05;278.27;;;;;;;22.59;39.21;103585.66;5116116;27;20048;-41
2022/01/21 02:25:23;;;;;;;383.67;279.55;;;;;;;22.61;39.10;103586.66;5124538;27;20491;-44
2022/01/21 02:27:56;;;;;;;383.88;276.23;;;;;;;22.64;39.13;103583.34;5124284;27;20031;-42
2022/01/21 02:30:25;;;;;;;387.38;279.33;;;;;;;22.61;39.09;103584.94;5098954;28;20027;-41
2022/01/21 02:32:56;;;;;;;362.70;273.83;;;;;;;22.64;38.91;103584.22;5123396;27;20232;-41
2022/01/21 02:35:26;;;;;;;374.70;278.23;;;;;;;22.61;38.95;103584.03;5104291;27;20034;-41
2022/01/21 02:37:55;;;;;;;366.92;275.02;;;;;;;22.64;38.82;103580.72;5123749;27;20031;-42
2022/01/21 02:40:24;;;;;;;371.58;276.65;;;;;;;22.65;38.62;103587.75;5123746;28;20630;-43
2022/01/21 02:42:53;;;;;;;382.23;280.52;;;;;;;22.66;38.98;103589.56;5122961;27;20027;-42
2022/01/21 02:45:21;;;;;;;374.85;277.67;;;;;;;22.57;38.97;103574.22;5123929;28;20514;-42
2022/01/21 02:47:50;;;;;;;387.77;282.33;;;;;;;22.57;39.11;103587.31;5123779;28;20088;-42
2022/01/21 02:50:19;;;;;;;388.50;285.52;;;;;;;22.61;39.01;103579.72;5124334;28;20026;-41
2022/01/21 02:53:11;;;;;;;375.55;276.70;;;;;;;22.55;39.20;103578.44;5124103;28;20031;-41
2022/01/21 02:55:35;;;;;;;372.75;274.05;;;;;;;22.53;39.20;103569.59;5123045;28;20111;-41
2022/01/21 02:58:04;;;;;;;377.60;276.20;;;;;;;22.54;39.13;103577.53;5123551;28;20026;-41
2022/01/21 03:00:34;;;;;;;377.95;275.25;;;;;;;22.49;39.19;103576.38;5105688;28;20031;-43
2022/01/21 03:03:05;;;;;;;374.33;280.92;;;;;;;22.56;38.78;103578.53;5123652;28;20046;-41
2022/01/21 03:05:36;;;;;;;380.60;279.45;;;;;;;22.53;38.98;103578.34;5123368;28;20050;-42
2022/01/21 03:08:05;;;;;;;382.83;283.33;;;;;;;22.51;39.04;103574.72;5123802;28;20089;-41
2022/01/21 03:10:33;;;;;;;392.73;288.80;;;;;;;22.50;39.27;103572.94;5123675;28;20353;-41
2022/01/21 03:13:02;;;;;;;390.27;286.55;;;;;;;22.55;39.11;103565.38;5123835;28;20031;-41
2022/01/21 03:15:30;;;;;;;392.27;288.10;;;;;;;22.53;39.03;103562.63;5123171;28;20031;-42
2022/01/21 03:17:59;;;;;;;390.58;287.55;;;;;;;22.51;38.97;103560.75;5123409;28;20499;-42
2022/01/21 03:20:27;;;;;;;383.30;285.00;;;;;;;22.44;39.13;103552.53;5123735;28;20038;-42
2022/01/21 03:22:57;;;;;;;395.42;286.20;;;;;;;22.43;39.13;103563.78;5104941;28;20472;-42
2022/01/21 03:25:25;;;;;;;386.73;289.05;;;;;;;22.40;39.14;103557.44;5123577;28;20031;-43
2022/01/21 03:27:54;;;;;;;389.67;282.85;;;;;;;22.44;39.19;103563.00;5123430;28;20035;-42
2022/01/21 03:30:22;;;;;;;385.70;280.27;;;;;;;22.47;39.06;103559.69;5123116;28;20160;-41
2022/01/21 03:32:51;;;;;;;394.38;289.65;;;;;;;22.49;38.98;103562.38;5124050;28;20019;-42
2022/01/21 03:35:20;;;;;;;396.75;292.17;;;;;;;22.53;38.91;103565.25;5123302;28;20031;-42
2022/01/21 03:37:49;;;;;;;399.58;285.70;;;;;;;22.53;38.98;103564.38;5123334;28;20027;-41
2022/01/21 03:40:17;;;;;;;391.17;286.25;;;;;;;22.49;39.24;103557.13;5123661;28;20023;-41
2022/01/21 03:42:46;;;;;;;390.45;286.67;;;;;;;22.48;38.90;103561.47;5122863;28;20027;-41
2022/01/21 03:45:14;;;;;;;389.15;283.05;;;;;;;22.45;38.78;103569.13;5123496;28;20058;-41
2022/01/21 03:47:44;;;;;;;376.88;272.00;;;;;;;22.49;38.72;103575.44;5123525;28;20031;-41
2022/01/21 03:50:32;;;;;;;363.90;270.73;;;;;;;22.54;38.38;103572.28;5123140;28;20031;-42
2022/01/21 03:53:01;;;;;;;363.67;265.65;;;;;;;22.43;38.92;103562.91;5123122;28;20082;-42
2022/01/21 03:55:31;;;;;;;359.40;258.25;;;;;;;22.41;38.69;103564.50;5108067;27;20034;-42
2022/01/21 03:58:00;;;;;;;355.55;257.00;;;;;;;22.44;38.59;103568.22;5127204;27;20488;-43
2022/01/21 04:00:33;;;;;;;340.63;249.35;;;;;;;22.43;38.51;103569.03;5127267;27;20114;-41
2022/01/21 04:03:03;;;;;;;343.17;250.90;;;;;;;22.42;38.84;103568.94;5127212;27;20027;-42
2022/01/21 04:05:32;;;;;;;342.60;246.55;;;;;;;22.45;38.29;103553.44;5126725;27;20483;-42
2022/01/21 04:08:02;;;;;;;335.25;244.50;;;;;;;22.40;38.70;103565.28;5126576;27;20039;-41
2022/01/21 04:10:30;;;;;;;337.48;245.57;;;;;;;22.43;38.41;103560.28;5127159;27;20035;-42
2022/01/21 04:12:59;;;;;;;326.08;239.82;;;;;;;22.35;38.83;103558.88;5126486;27;20027;-42
2022/01/21 04:15:27;;;;;;;320.17;235.68;;;;;;;22.38;38.67;103559.06;5126520;27;20461;-42
2022/01/21 04:17:56;;;;;;;321.67;235.73;;;;;;;22.36;38.45;103558.06;5127068;27;20073;-42
2022/01/21 04:20:25;;;;;;;331.45;237.43;;;;;;;22.27;38.41;103543.63;5100322;27;20038;-41
2022/01/21 04:22:53;;;;;;;326.85;236.57;;;;;;;22.37;38.66;103552.03;5098130;27;20028;-41
2022/01/21 04:25:22;;;;;;;319.52;227.98;;;;;;;22.34;38.50;103549.25;5126623;27;20027;-41
2022/01/21 04:27:51;;;;;;;314.60;226.98;;;;;;;22.33;38.46;103555.28;5126612;27;20042;-42
2022/01/21 04:30:19;;;;;;;305.65;224.68;;;;;;;22.36;38.37;103553.75;5108345;27;20107;-41
2022/01/21 04:32:48;;;;;;;306.23;221.68;;;;;;;22.31;38.61;103553.47;5125557;27;20019;-42
2022/01/21 04:35:16;;;;;;;311.98;226.48;;;;;;;22.26;38.64;103543.53;5126191;27;20023;-42
2022/01/21 04:37:52;;;;;;;308.75;224.90;;;;;;;22.29;38.61;103557.72;5126086;27;20030;-44
2022/01/21 04:40:23;;;;;;;297.02;216.82;;;;;;;22.35;38.60;103553.66;5126453;27;20395;-41
2022/01/21 04:48:28;;;;;;;297.63;216.00;;;;;;;22.38;38.22;103561.69;5118414;27;20043;-42
2022/01/21 04:51:00;;;;;;;298.90;216.70;;;;;;;22.41;38.14;103562.78;5126077;27;20391;-42
2022/01/21 04:53:30;;;;;;;305.30;221.80;;;;;;;22.39;38.23;103553.03;5126558;27;20035;-42
2022/01/21 04:55:58;;;;;;;287.67;211.90;;;;;;;22.33;38.33;103550.06;5108040;27;20038;-42
2022/01/21 04:58:27;;;;;;;293.70;211.75;;;;;;;22.36;38.61;103568.53;5126147;27;20058;-42
2022/01/21 05:00:56;;;;;;;301.48;212.73;;;;;;;22.30;38.38;103563.81;5125874;27;20031;-41
2022/01/21 05:03:24;;;;;;;298.35;215.52;;;;;;;22.31;38.48;103560.41;5124616;27;20035;-42
2022/01/21 05:05:53;;;;;;;301.55;211.10;;;;;;;22.31;38.31;103561.31;5123632;27;20071;-41
2022/01/21 05:08:28;;;;;;;301.92;214.70;;;;;;;22.31;38.35;103570.88;5124757;27;20034;-43
2022/01/21 05:10:57;;;;;;;302.40;213.57;;;;;;;22.31;38.56;103570.88;5126091;27;20110;-41
2022/01/21 05:13:28;;;;;;;281.75;205.98;;;;;;;22.31;38.43;103583.94;5125945;27;20541;-41
2022/01/21 05:16:10;;;;;;;284.23;206.05;;;;;;;22.28;38.31;103582.06;5125092;27;20027;-41
2022/01/21 05:18:39;;;;;;;282.85;207.63;;;;;;;22.27;38.59;103580.25;5125903;27;20070;-42
2022/01/21 05:21:08;;;;;;;288.17;208.50;;;;;;;22.29;38.54;103590.78;5125319;27;20030;-42
2022/01/21 05:23:36;;;;;;;287.48;206.50;;;;;;;22.27;38.44;103588.09;5125042;27;20031;-42
2022/01/21 05:26:05;;;;;;;275.05;202.82;;;;;;;22.29;38.06;103588.16;5125348;27;20476;-42
2022/01/21 05:28:34;;;;;;;294.73;206.23;;;;;;;22.30;38.29;103587.38;5124798;27;20069;-42
2022/01/21 05:31:02;;;;;;;281.88;201.80;;;;;;;22.29;38.26;103583.88;5124755;27;20027;-41
2022/01/21 05:33:31;;;;;;;275.73;201.73;;;;;;;22.29;38.21;103586.47;5125347;27;20309;-42
2022/01/21 05:36:00;;;;;;;265.65;193.40;;;;;;;22.31;37.89;103587.47;5124896;27;20042;-42
2022/01/21 05:38:28;;;;;;;265.55;191.85;;;;;;;22.30;38.35;103597.81;5124842;27;20031;-41
2022/01/21 05:40:57;;;;;;;265.83;186.07;;;;;;;22.34;37.93;103588.47;5125087;27;20110;-42
2022/01/21 05:43:26;;;;;;;260.38;183.93;;;;;;;22.30;37.92;103583.06;5125030;27;20200;-42
2022/01/21 05:48:42;;;;;;;251.77;176.90;;;;;;;22.30;37.99;103592.59;5105936;27;20095;-41
2022/01/21 05:51:11;;;;;;;245.82;172.45;;;;;;;22.28;37.77;103595.13;5124668;27;20637;-41
2022/01/21 05:53:40;;;;;;;243.60;173.48;;;;;;;22.27;38.12;103593.31;5124511;27;20023;-41
2022/01/21 05:56:08;;;;;;;233.23;167.00;;;;;;;22.29;37.99;103602.16;5124091;27;20118;-42
2022/01/21 05:58:37;;;;;;;223.23;159.90;;;;;;;22.26;37.59;103611.50;5124834;27;20038;-42
2022/01/21 06:01:05;;;;;;;221.55;159.50;;;;;;;22.23;37.64;103608.72;5124397;27;20030;-41
2022/01/21 06:03:34;;;;;;;219.77;158.00;;;;;;;22.28;37.81;103610.81;5124627;27;20035;-42
2022/01/21 06:06:03;;;;;;;217.27;153.63;;;;;;;22.28;37.81;103610.81;5124542;27;20029;-42
2022/01/21 06:08:31;;;;;;;206.80;146.85;;;;;;;22.29;37.60;103617.84;5106153;27;20484;-41
2022/01/21 06:11:00;;;;;;;208.23;145.55;;;;;;;22.24;37.46;103619.28;5105862;27;20110;-41
2022/01/21 06:13:28;;;;;;;202.43;144.02;;;;;;;22.23;37.80;103627.03;5124375;27;20441;-41
2022/01/21 06:15:58;;;;;;;203.10;140.65;;;;;;;22.17;37.87;103617.09;5124190;27;20034;-41
2022/01/21 06:18:27;;;;;;;199.38;141.38;;;;;;;22.24;37.58;103626.22;5124456;27;20065;-41
2022/01/21 06:20:56;;;;;;;196.48;141.65;;;;;;;22.21;37.69;103637.38;5124624;27;20031;-41
2022/01/21 06:23:24;;;;;;;196.93;136.15;;;;;;;22.19;37.80;103645.94;5124066;27;20798;-42
2022/01/21 06:25:52;;;;;;;188.18;134.38;;;;;;;22.15;37.55;103637.91;5123428;27;20031;-42
2022/01/21 06:28:22;;;;;;;182.77;132.77;;;;;;;22.19;37.67;103640.72;5124306;27;20439;-42
2022/01/21 06:30:52;;;;;;;181.40;127.45;;;;;;;22.20;37.77;103639.91;5106176;28;20429;-41
2022/01/21 06:33:21;;;;;;;182.02;131.40;;;;;;;22.20;37.52;103642.53;5124268;27;20417;-42
2022/01/21 06:35:51;;;;;;;176.55;124.97;;;;;;;22.18;37.67;103645.03;5123982;27;20767;-41
2022/01/21 06:38:21;;;;;;;183.05;126.68;;;;;;;22.20;37.31;103640.78;5123823;27;20073;-42
2022/01/21 06:40:49;;;;;;;176.38;125.10;;;;;;;22.20;37.28;103642.53;5123832;28;20452;-41
2022/01/21 06:43:18;;;;;;;177.75;123.45;;;;;;;22.20;37.28;103647.75;5124524;28;20031;-41
2022/01/21 06:45:47;;;;;;;175.70;121.55;;;;;;;22.16;37.66;103647.56;5124509;28;20056;-41
2022/01/21 06:48:15;;;;;;;168.57;120.32;;;;;;;22.17;37.32;103651.09;5123598;28;20114;-42
2022/01/21 06:50:44;;;;;;;178.95;123.45;;;;;;;22.23;37.16;103661.03;5105798;28;20019;-41
2022/01/21 06:53:12;;;;;;;162.80;118.65;;;;;;;22.19;37.07;103652.06;5123764;28;20367;-42
2022/01/21 06:55:41;;;;;;;169.85;120.32;;;;;;;22.15;37.45;103660.53;5123804;28;20027;-41
2022/01/21 06:58:09;;;;;;;174.95;118.32;;;;;;;22.11;37.19;103654.19;5124156;28;20035;-41
2022/01/21 07:00:38;;;;;;;159.68;113.38;;;;;;;22.16;37.43;103673.69;5124078;28;20042;-41
2022/01/21 07:03:06;;;;;;;157.73;110.75;;;;;;;22.11;37.01;103663.75;5123763;28;20023;-43
2022/01/21 07:05:35;;;;;;;154.07;113.80;;;;;;;22.18;37.16;103670.28;5123799;28;20035;-46
2022/01/21 07:08:04;;;;;;;164.02;112.78;;;;;;;22.13;36.89;103678.72;5123733;28;20076;-41
2022/01/21 07:10:33;;;;;;;161.50;112.03;;;;;;;22.15;37.30;103681.47;5123656;28;20403;-43
2022/01/21 07:13:02;;;;;;;161.68;110.35;;;;;;;22.13;36.88;103683.06;5123446;28;20027;-41
2022/01/21 07:15:30;;;;;;;155.63;109.45;;;;;;;22.14;37.09;103680.53;5123286;28;20038;-41
2022/01/21 07:17:59;;;;;;;157.43;109.63;;;;;;;22.09;36.97;103683.66;5123477;28;20056;-41
2022/01/21 07:20:27;;;;;;;147.57;107.55;;;;;;;22.11;37.28;103682.06;5123664;28;20157;-42
2022/01/21 07:22:55;;;;;;;154.45;105.63;;;;;;;22.11;37.19;103684.69;5123615;28;20785;-41
2022/01/21 07:25:23;;;;;;;149.45;105.15;;;;;;;22.13;37.12;103691.81;5123424;28;20039;-41
2022/01/21 07:27:52;;;;;;;151.68;104.75;;;;;;;22.21;36.66;103689.69;5123504;28;20161;-42
2022/01/21 07:30:20;;;;;;;142.45;100.47;;;;;;;22.21;36.81;103694.91;5126433;27;20023;-42
2022/01/21 07:32:49;;;;;;;146.02;103.70;;;;;;;22.24;36.49;103695.09;5127055;27;20157;-41
2022/01/21 07:35:17;;;;;;;141.30;100.50;;;;;;;22.25;36.69;103693.41;5107604;27;20460;-41
2022/01/21 07:37:46;;;;;;;141.70;102.22;;;;;;;22.26;36.72;103697.81;5126602;27;20438;-42
2022/01/21 07:40:14;;;;;;;141.90;102.40;;;;;;;22.30;36.53;103698.13;5109029;27;20034;-42
2022/01/21 07:42:43;;;;;;;141.07;100.60;;;;;;;22.28;36.53;103691.88;5127054;27;20084;-42
2022/01/21 07:45:11;;;;;;;136.70;98.22;;;;;;;22.31;36.95;103685.94;5127300;27;20416;-42
2022/01/21 07:47:40;;;;;;;136.52;98.18;;;;;;;22.33;36.34;103686.94;5127269;27;20039;-42
2022/01/21 07:50:09;;;;;;;140.35;97.03;;;;;;;22.34;36.52;103687.84;5127570;27;20027;-42
2022/01/21 07:52:37;;;;;;;148.15;98.60;;;;;;;22.33;36.77;103691.28;5126198;27;20100;-42
2022/01/21 07:55:06;;;;;;;138.75;96.00;;;;;;;22.35;36.41;103700.09;5126900;27;20190;-42
2022/01/21 07:57:35;;;;;;;140.32;98.68;;;;;;;22.33;36.72;103704.34;5126821;27;20223;-42
2022/01/21 08:00:05;;;;;;;141.15;99.00;;;;;;;22.30;36.63;103708.59;5127357;27;20362;-42
2022/01/21 08:02:34;;;;;;;143.48;96.97;;;;;;;22.34;36.52;103719.25;5126534;27;20518;-43
2022/01/21 08:05:03;;;;;;;138.80;93.97;;;;;;;22.33;36.78;103717.44;5126635;27;20042;-42
2022/01/21 08:07:30;;;;;;;132.68;93.47;;;;;;;22.39;36.26;103720.41;5127377;27;20027;-43
2022/01/21 08:09:58;;;;;;;135.82;95.30;;;;;;;22.40;36.45;103722.22;5126815;27;20404;-43
2022/01/21 08:12:25;;;;;;;136.38;94.93;;;;;;;22.37;36.55;103725.56;5108241;27;20056;-42
2022/01/21 08:14:53;;;;;;;129.18;91.25;;;;;;;22.42;36.47;103733.72;5127128;27;20529;-42
2022/01/21 08:17:23;;;;;;;139.85;92.05;;;;;;;22.40;36.23;103736.22;5126135;27;20470;-42
2022/01/21 08:19:51;;;;;;;127.50;91.07;;;;;;;22.46;36.46;103738.34;5126384;27;20087;-43
2022/01/21 08:22:22;;;;;;;133.20;92.28;;;;;;;22.49;36.36;103738.56;5126237;27;20337;-43
2022/01/21 08:24:51;;;;;;;132.00;89.32;;;;;;;22.30;36.31;103716.44;5126395;27;20035;-42
2022/01/21 08:27:19;;;;;;;138.30;91.22;;;;;;;22.48;36.25;103752.44;5125738;27;20484;-42
2022/01/21 08:29:47;;;;;;;130.68;88.88;;;;;;;22.48;36.52;103744.59;5126282;27;20030;-42
2022/01/21 08:32:16;;;;;;;131.70;91.22;;;;;;;22.53;36.40;103744.88;5126402;27;20105;-42
2022/01/21 08:34:45;;;;;;;126.68;91.22;;;;;;;22.55;35.89;103752.00;5126259;27;20326;-42
2022/01/21 08:37:13;;;;;;;128.88;88.30;;;;;;;22.55;36.15;103754.63;5126346;27;20027;-42
2022/01/21 08:39:43;;;;;;;129.00;90.90;;;;;;;22.56;36.33;103748.59;5126291;27;20119;-42
2022/01/21 08:42:12;;;;;;;128.68;90.10;;;;;;;22.50;36.21;103744.69;5125825;27;20094;-42
2022/01/21 08:44:41;;;;;;;122.65;86.18;;;;;;;22.55;36.11;103754.63;5125238;27;20038;-42
2022/01/21 08:47:10;;;;;;;128.80;87.43;;;;;;;22.68;36.17;103758.00;5125737;27;20042;-42
2022/01/21 08:49:39;;;;;;;123.32;85.10;;;;;;;22.70;35.91;103754.69;5125791;27;20084;-42
2022/01/21 08:52:07;;;;;;;125.35;87.40;;;;;;;22.75;35.77;103757.59;5126009;27;20034;-42
2022/01/21 08:54:36;;;;;;;122.82;86.38;;;;;;;22.73;35.93;103747.03;5107359;27;20027;-42
2022/01/21 08:57:04;;;;;;;130.13;88.45;;;;;;;22.77;35.99;103751.63;5125378;27;20528;-42
2022/01/21 08:59:33;;;;;;;123.50;86.97;;;;;;;22.82;35.95;103758.88;5125973;27;20045;-42
2022/01/21 09:02:01;;;;;;;124.10;86.95;;;;;;;22.80;35.78;103750.03;5126021;27;20038;-42
2022/01/21 09:04:29;;;;;;;122.97;86.55;;;;;;;22.82;35.88;103749.31;5125499;27;20088;-42
2022/01/21 09:06:58;;;;;;;123.82;86.35;;;;;;;22.80;35.86;103740.47;5125410;27;20030;-42
2022/01/21 09:09:26;;;;;;;127.22;85.25;;;;;;;22.97;35.67;103740.59;5126003;27;20148;-42
2022/01/21 09:11:59;;;;;;;123.13;84.32;;;;;;;22.92;35.52;103740.28;5125485;27;20037;-42
2022/01/21 09:14:29;;;;;;;120.47;83.60;;;;;;;22.90;35.53;103742.84;5108089;27;20391;-42
2022/01/21 09:16:58;;;;;;;118.30;81.07;;;;;;;22.87;35.86;103740.03;5124935;27;20500;-43
2022/01/21 09:19:26;;;;;;;126.00;86.50;;;;;;;22.95;35.68;103739.59;5107385;27;20031;-42
2022/01/21 09:21:55;;;;;;;117.43;83.25;;;;;;;22.98;35.76;103745.03;5090774;27;20567;-42
2022/01/21 09:24:24;;;;;;;119.28;82.30;;;;;;;23.02;35.36;103742.69;5125406;27;20110;-42
2022/01/21 09:26:52;;;;;;;121.40;82.30;;;;;;;23.04;35.69;103750.63;5106976;27;20233;-42
2022/01/21 09:29:21;;;;;;;120.00;81.28;;;;;;;23.03;35.68;103754.06;5125106;27;20186;-42
2022/01/21 09:31:50;;;;;;;121.50;82.05;;;;;;;23.12;35.39;103746.78;5125324;27;20035;-43
2022/01/21 09:34:18;;;;;;;113.65;78.10;;;;;;;23.14;35.59;103755.63;5125588;27;20027;-43
2022/01/21 09:36:47;;;;;;;105.80;76.05;;;;;;;23.14;35.52;103763.50;5125197;27;20031;-42
2022/01/21 09:39:15;;;;;;;113.30;79.95;;;;;;;23.26;35.40;103765.94;5106914;27;20098;-42
2022/01/21 09:41:44;;;;;;;117.28;78.88;;;;;;;23.26;35.27;103765.94;5125289;27;20151;-44
2022/01/21 09:44:14;;;;;;;117.03;79.97;;;;;;;23.28;35.16;103763.44;5124870;27;20119;-42
2022/01/21 09:46:46;;;;;;;105.85;74.78;;;;;;;23.18;35.80;103764.56;5124352;27;20031;-42
2022/01/21 09:49:35;;;;;;;110.47;74.47;;;;;;;23.20;35.52;103768.19;5125112;27;20638;-43
2022/01/21 09:52:06;;;;;;;101.70;73.40;;;;;;;23.23;35.86;103772.72;5123796;27;20034;-43
2022/01/21 09:54:37;;;;;;;109.60;73.10;;;;;;;23.29;35.86;103779.25;5124317;27;20028;-43
2022/01/21 09:57:08;;;;;;;109.80;73.47;;;;;;;23.32;35.91;103773.31;5124643;27;20030;-42
2022/01/21 09:59:39;;;;;;;100.78;68.40;;;;;;;23.34;35.42;103769.97;5125445;27;20380;-42
2022/01/21 10:02:09;;;;;;;105.80;68.47;;;;;;;23.39;35.57;103780.72;5124566;27;20102;-42
2022/01/21 10:04:42;;;;;;;93.55;66.50;;;;;;;23.39;35.59;103778.09;5123703;27;20494;-42
2022/01/21 10:07:15;;;;;;;99.28;66.47;;;;;;;23.43;35.49;103779.16;5091780;27;20326;-42
2022/01/21 10:09:45;;;;;;;95.57;64.05;;;;;;;23.47;35.80;103773.31;5124545;27;20115;-42
2022/01/21 10:12:14;;;;;;;99.68;66.95;;;;;;;23.52;35.64;103785.84;5124190;27;20396;-43
2022/01/21 10:14:43;;;;;;;99.20;65.70;;;;;;;23.60;35.18;103786.31;5124238;27;20030;-42
2022/01/21 10:17:12;;;;;;;97.93;64.63;;;;;;;23.60;35.24;103777.56;5123863;27;20070;-42
2022/01/21 10:19:41;;;;;;;96.82;65.38;;;;;;;23.59;35.66;103786.22;5124188;27;20027;-42
2022/01/21 10:22:16;;;;;;;94.20;62.78;;;;;;;23.60;35.32;103788.03;5124598;27;20030;-43
2022/01/21 10:24:54;;;;;;;102.07;66.20;;;;;;;23.62;35.81;103791.66;5089377;27;20476;-42
2022/01/21 10:27:29;;;;;;;100.88;65.35;;;;;;;23.46;35.52;103756.69;5124335;27;20630;-42
2022/01/21 10:29:58;;;;;;;98.00;63.70;;;;;;;23.69;35.30;103785.06;5124246;27;20031;-42
2022/01/21 10:32:46;;;;;;;93.10;63.53;;;;;;;23.71;35.47;103784.34;5123041;27;20490;-41
2022/01/21 10:35:35;;;;;;;93.63;62.95;;;;;;;23.75;35.54;103777.53;5123466;27;20035;-41
2022/01/21 10:38:28;;;;;;;93.45;62.47;;;;;;;23.76;35.59;103781.97;5123534;27;20484;-41
2022/01/21 10:41:08;;;;;;;91.70;63.00;;;;;;;23.76;35.73;103780.28;5124256;27;20027;-42
2022/01/21 10:43:37;;;;;;;92.18;64.10;;;;;;;23.82;35.18;103778.03;5124220;28;20360;-42
2022/01/21 10:46:06;;;;;;;95.55;63.13;;;;;;;23.86;35.25;103780.78;5094190;28;20502;-42
2022/01/21 10:48:59;;;;;;;96.68;63.22;;;;;;;23.86;35.36;103783.41;5124012;28;20124;-42
2022/01/21 10:51:30;;;;;;;90.00;61.63;;;;;;;23.88;35.44;103774.84;5123730;28;20391;-42
2022/01/21 10:54:11;;;;;;;95.50;61.55;;;;;;;23.95;35.00;103778.72;5123957;28;20496;-42
2022/01/21 10:56:40;;;;;;;93.10;63.35;;;;;;;23.97;34.95;103780.63;5123442;28;20471;-42
2022/01/21 10:59:08;;;;;;;92.43;61.03;;;;;;;23.97;35.32;103785.00;5123624;28;20031;-42
2022/01/21 11:01:37;;;;;;;92.32;62.92;;;;;;;23.97;35.26;103785.88;5088779;28;20024;-42
2022/01/21 11:04:11;;;;;;;92.97;63.50;;;;;;;23.96;35.42;103770.97;5124612;27;20023;-42
2022/01/21 11:06:55;;;;;;;94.43;61.92;;;;;;;24.01;35.08;103776.47;5126857;27;20027;-44
2022/01/21 11:09:25;;;;;;;96.87;63.47;;;;;;;24.04;35.32;103778.38;5127738;27;20027;-42
2022/01/21 11:12:13;;;;;;;86.82;60.58;;;;;;;24.07;35.08;103782.06;5128058;27;20023;-42
2022/01/21 11:15:03;;;;;;;90.13;60.40;;;;;;;24.09;35.32;103777.81;5109579;27;20056;-42
2022/01/21 11:17:34;;;;;;;92.70;60.42;;;;;;;24.10;35.23;103773.47;5090536;27;20080;-42
2022/01/21 11:20:13;;;;;;;91.18;61.47;;;;;;;24.11;34.78;103783.16;5127807;27;20031;-41
2022/01/21 11:23:01;;;;;;;95.97;64.72;;;;;;;24.12;35.05;103775.38;5127412;27;20489;-42
2022/01/21 11:25:51;;;;;;;92.38;61.90;;;;;;;24.09;35.06;103769.97;5127202;27;20042;-42
2022/01/21 11:28:22;;;;;;;89.95;62.00;;;;;;;24.12;34.72;103770.13;5127592;27;20037;-42
2022/01/21 11:30:52;;;;;;;91.53;62.55;;;;;;;24.12;35.08;103759.66;5128078;27;20114;-42
2022/01/21 11:33:22;;;;;;;92.28;63.95;;;;;;;24.14;35.02;103758.84;5127367;27;20473;-42
2022/01/21 11:35:52;;;;;;;91.55;62.85;;;;;;;24.14;34.57;103758.84;5127644;27;20031;-42
2022/01/21 11:38:24;;;;;;;96.78;65.75;;;;;;;24.15;34.96;103753.66;5127581;27;20035;-42
2022/01/21 11:40:53;;;;;;;108.22;77.13;;;;;;;24.11;34.98;103749.06;5127779;27;20468;-43
2022/01/21 11:43:24;;;;;;;100.85;70.68;;;;;;;24.11;34.80;103746.44;5127198;27;20087;-42
2022/01/21 11:50:56;;;;;;;102.07;69.15;;;;;;;24.21;34.81;103739.97;5108953;27;20023;-42
2022/01/21 11:53:45;;;;;;;97.82;68.22;;;;;;;24.25;34.73;103729.75;5108847;27;20039;-42
2022/01/21 11:56:51;;;;;;;102.88;66.75;;;;;;;24.31;34.56;103726.59;5117742;27;20114;-42